Archival Weather

Randolph Afb

Universal City, Texas (KRND)

Report from: Monday, September 26, 2022 9:55 AM CDT
Current time: Saturday, February 4, 2023 9:51 PM CST

Current weather
Weather history
Weather forecast

Temperature28.4°C (83.1°F)
Heat index27.7°C (81.9°F)
Dew point10.1°C (50.2°F)
Winds 14 kts (7.2 m/s, 16.1 mph) North-Northeast (30°)
Visibility10 mi. (16.1 km)
Clouds Sky clear
Altimeter30.06 in.Hg (1018 mB)
Relative humidity32 %
Density altitude1,561 ft. (476 m)
Sea-level pressure101.7 kPa (1017 mB, 30.04 in.Hg)
Remarks Fully automated report
Automated weather observing station with precipitation discriminator
Pressure rising
Flight conditions Visual Meteorological Conditions
Raw dataKRND 261455Z AUTO 03014KT 10SM CLR 28/10 A3006 RMK AO2 SLP171 T02840101 52019
An unhandled exception has occurred. See browser dev tools for details. Reload 🗙